sensor_id;sensor_type;location;lat;lon;timestamp;temperature;humidity
8988;DHT22;4529;51.360;12.474;2023-04-01T00:01:00;10.60;99.90
8988;DHT22;4529;51.360;12.474;2023-04-01T00:06:03;10.50;99.90
8988;DHT22;4529;51.360;12.474;2023-04-01T00:11:07;10.50;99.90
8988;DHT22;4529;51.360;12.474;2023-04-01T00:16:10;10.50;99.90
8988;DHT22;4529;51.360;12.474;2023-04-01T00:21:14;10.40;99.90
8988;DHT22;4529;51.360;12.474;2023-04-01T00:26:17;10.40;99.90
8988;DHT22;4529;51.360;12.474;2023-04-01T00:31:20;10.40;99.90
8988;DHT22;4529;51.360;12.474;2023-04-01T00:36:24;10.40;99.90
8988;DHT22;4529;51.360;12.474;2023-04-01T00:41:28;10.30;99.90
8988;DHT22;4529;51.360;12.474;2023-04-01T00:46:31;10.40;99.90
8988;DHT22;4529;51.360;12.474;2023-04-01T00:51:35;10.30;99.90
8988;DHT22;4529;51.360;12.474;2023-04-01T01:01:56;10.30;99.90
8988;DHT22;4529;51.360;12.474;2023-04-01T01:07:20;10.30;99.90
8988;DHT22;4529;51.360;12.474;2023-04-01T01:18:16;10.30;99.90
8988;DHT22;4529;51.360;12.474;2023-04-01T01:40:29;10.30;99.90
8988;DHT22;4529;51.360;12.474;2023-04-01T01:45:33;10.30;99.90
8988;DHT22;4529;51.360;12.474;2023-04-01T01:50:36;10.30;99.90
8988;DHT22;4529;51.360;12.474;2023-04-01T01:55:43;10.30;99.90
8988;DHT22;4529;51.360;12.474;2023-04-01T02:00:48;10.30;99.90
8988;DHT22;4529;51.360;12.474;2023-04-01T02:05:50;10.30;99.90
8988;DHT22;4529;51.360;12.474;2023-04-01T02:10:56;10.30;99.90
8988;DHT22;4529;51.360;12.474;2023-04-01T02:16:00;10.30;99.90
8988;DHT22;4529;51.360;12.474;2023-04-01T02:21:04;10.30;99.90
8988;DHT22;4529;51.360;12.474;2023-04-01T02:26:07;10.30;99.90
8988;DHT22;4529;51.360;12.474;2023-04-01T02:31:11;10.40;99.90
8988;DHT22;4529;51.360;12.474;2023-04-01T02:36:16;10.40;99.90
8988;DHT22;4529;51.360;12.474;2023-04-01T02:41:20;10.40;99.90
8988;DHT22;4529;51.360;12.474;2023-04-01T02:46:24;10.50;99.90
8988;DHT22;4529;51.360;12.474;2023-04-01T02:51:28;10.50;99.90
8988;DHT22;4529;51.360;12.474;2023-04-01T02:56:32;10.50;99.90
8988;DHT22;4529;51.360;12.474;2023-04-01T03:01:36;10.50;99.90
8988;DHT22;4529;51.360;12.474;2023-04-01T03:06:40;10.50;99.90
8988;DHT22;4529;51.360;12.474;2023-04-01T03:11:44;10.50;99.90
8988;DHT22;4529;51.360;12.474;2023-04-01T03:16:48;10.50;99.90
8988;DHT22;4529;51.360;12.474;2023-04-01T03:21:53;10.50;99.90
8988;DHT22;4529;51.360;12.474;2023-04-01T03:26:57;10.50;99.90
8988;DHT22;4529;51.360;12.474;2023-04-01T03:32:01;10.50;99.90
8988;DHT22;4529;51.360;12.474;2023-04-01T03:37:05;10.40;99.90
8988;DHT22;4529;51.360;12.474;2023-04-01T03:42:09;10.40;99.90
8988;DHT22;4529;51.360;12.474;2023-04-01T03:47:13;10.40;99.90
8988;DHT22;4529;51.360;12.474;2023-04-01T03:52:17;10.40;99.90
8988;DHT22;4529;51.360;12.474;2023-04-01T03:57:22;10.40;99.90
8988;DHT22;4529;51.360;12.474;2023-04-01T04:02:26;10.40;99.90
8988;DHT22;4529;51.360;12.474;2023-04-01T04:07:30;10.30;99.90
8988;DHT22;4529;51.360;12.474;2023-04-01T04:12:34;10.30;99.90
8988;DHT22;4529;51.360;12.474;2023-04-01T04:17:38;10.20;99.90
8988;DHT22;4529;51.360;12.474;2023-04-01T04:22:42;10.20;99.90
8988;DHT22;4529;51.360;12.474;2023-04-01T04:27:46;10.20;99.90
8988;DHT22;4529;51.360;12.474;2023-04-01T04:32:49;10.20;99.90
8988;DHT22;4529;51.360;12.474;2023-04-01T04:37:53;10.10;99.90
8988;DHT22;4529;51.360;12.474;2023-04-01T04:42:56;10.10;99.90
8988;DHT22;4529;51.360;12.474;2023-04-01T04:47:59;10.10;99.90
8988;DHT22;4529;51.360;12.474;2023-04-01T04:53:03;10.10;99.90
8988;DHT22;4529;51.360;12.474;2023-04-01T04:58:06;10.10;99.90
8988;DHT22;4529;51.360;12.474;2023-04-01T05:03:10;10.10;99.90
8988;DHT22;4529;51.360;12.474;2023-04-01T05:13:20;10.10;99.90
8988;DHT22;4529;51.360;12.474;2023-04-01T05:18:24;10.30;99.90
8988;DHT22;4529;51.360;12.474;2023-04-01T05:23:27;10.60;99.90
8988;DHT22;4529;51.360;12.474;2023-04-01T05:28:32;10.80;99.90
8988;DHT22;4529;51.360;12.474;2023-04-01T05:33:36;10.60;99.90
8988;DHT22;4529;51.360;12.474;2023-04-01T05:38:40;10.60;99.90
8988;DHT22;4529;51.360;12.474;2023-04-01T05:43:44;10.30;99.90
8988;DHT22;4529;51.360;12.474;2023-04-01T05:48:48;10.30;99.90
8988;DHT22;4529;51.360;12.474;2023-04-01T05:53:52;10.30;99.90
8988;DHT22;4529;51.360;12.474;2023-04-01T05:58:57;10.30;99.90
8988;DHT22;4529;51.360;12.474;2023-04-01T06:04:01;10.30;99.90
8988;DHT22;4529;51.360;12.474;2023-04-01T06:09:18;10.30;99.90
8988;DHT22;4529;51.360;12.474;2023-04-01T06:30:43;10.50;99.90
8988;DHT22;4529;51.360;12.474;2023-04-01T06:46:47;10.70;99.90
8988;DHT22;4529;51.360;12.474;2023-04-01T06:57:35;10.90;99.90
8988;DHT22;4529;51.360;12.474;2023-04-01T07:02:39;10.90;99.90
8988;DHT22;4529;51.360;12.474;2023-04-01T07:07:53;11.00;99.90
8988;DHT22;4529;51.360;12.474;2023-04-01T07:12:56;11.10;99.90
8988;DHT22;4529;51.360;12.474;2023-04-01T07:18:03;11.10;99.90
8988;DHT22;4529;51.360;12.474;2023-04-01T07:23:04;11.10;99.90
8988;DHT22;4529;51.360;12.474;2023-04-01T07:28:11;11.20;99.90
8988;DHT22;4529;51.360;12.474;2023-04-01T07:33:29;11.50;99.90
8988;DHT22;4529;51.360;12.474;2023-04-01T07:43:58;11.60;99.90
8988;DHT22;4529;51.360;12.474;2023-04-01T07:49:18;11.80;99.90
8988;DHT22;4529;51.360;12.474;2023-04-01T07:54:32;11.90;99.90
8988;DHT22;4529;51.360;12.474;2023-04-01T08:00:08;12.00;99.90
8988;DHT22;4529;51.360;12.474;2023-04-01T08:05:32;12.10;99.90
8988;DHT22;4529;51.360;12.474;2023-04-01T08:10:41;12.10;99.90
8988;DHT22;4529;51.360;12.474;2023-04-01T08:16:06;12.30;99.90
8988;DHT22;4529;51.360;12.474;2023-04-01T08:26:41;12.40;99.90
8988;DHT22;4529;51.360;12.474;2023-04-01T08:31:52;12.50;99.90
8988;DHT22;4529;51.360;12.474;2023-04-01T08:36:59;12.50;99.90
8988;DHT22;4529;51.360;12.474;2023-04-01T08:58:32;12.20;99.90
8988;DHT22;4529;51.360;12.474;2023-04-01T09:14:44;12.20;99.90
8988;DHT22;4529;51.360;12.474;2023-04-01T09:31:15;12.40;99.90
8988;DHT22;4529;51.360;12.474;2023-04-01T09:36:44;12.50;99.90
8988;DHT22;4529;51.360;12.474;2023-04-01T09:47:43;12.60;99.90
8988;DHT22;4529;51.360;12.474;2023-04-01T09:58:41;13.00;99.90
8988;DHT22;4529;51.360;12.474;2023-04-01T10:03:59;13.00;99.90
8988;DHT22;4529;51.360;12.474;2023-04-01T10:09:17;13.20;99.90
8988;DHT22;4529;51.360;12.474;2023-04-01T10:14:26;13.20;99.90
8988;DHT22;4529;51.360;12.474;2023-04-01T10:36:50;13.40;99.90
8988;DHT22;4529;51.360;12.474;2023-04-01T10:42:34;13.30;99.90
8988;DHT22;4529;51.360;12.474;2023-04-01T10:47:57;13.30;99.90
8988;DHT22;4529;51.360;12.474;2023-04-01T10:53:27;13.30;99.90
8988;DHT22;4529;51.360;12.474;2023-04-01T10:58:45;13.40;99.90
8988;DHT22;4529;51.360;12.474;2023-04-01T11:04:00;13.40;99.90
8988;DHT22;4529;51.360;12.474;2023-04-01T11:09:19;13.40;99.90
8988;DHT22;4529;51.360;12.474;2023-04-01T11:26:20;13.50;99.90
8988;DHT22;4529;51.360;12.474;2023-04-01T11:31:23;13.60;99.90
8988;DHT22;4529;51.360;12.474;2023-04-01T11:36:49;13.60;99.90
8988;DHT22;4529;51.360;12.474;2023-04-01T11:42:09;13.60;99.90
8988;DHT22;4529;51.360;12.474;2023-04-01T11:53:02;13.60;99.90
8988;DHT22;4529;51.360;12.474;2023-04-01T11:58:19;13.50;99.90
8988;DHT22;4529;51.360;12.474;2023-04-01T12:03:54;13.30;99.90
8988;DHT22;4529;51.360;12.474;2023-04-01T12:09:22;13.20;99.90
8988;DHT22;4529;51.360;12.474;2023-04-01T12:14:38;13.10;99.90
8988;DHT22;4529;51.360;12.474;2023-04-01T12:20:16;13.10;99.90
8988;DHT22;4529;51.360;12.474;2023-04-01T12:31:03;12.90;99.90
8988;DHT22;4529;51.360;12.474;2023-04-01T12:37:12;12.80;99.90
8988;DHT22;4529;51.360;12.474;2023-04-01T12:46:59;12.60;99.90
8988;DHT22;4529;51.360;12.474;2023-04-01T12:57:32;12.60;99.90
8988;DHT22;4529;51.360;12.474;2023-04-01T13:02:53;12.60;99.90
8988;DHT22;4529;51.360;12.474;2023-04-01T13:08:00;12.50;99.90
8988;DHT22;4529;51.360;12.474;2023-04-01T13:23:56;12.60;99.90
8988;DHT22;4529;51.360;12.474;2023-04-01T13:29:23;12.70;99.90
8988;DHT22;4529;51.360;12.474;2023-04-01T13:34:49;12.70;99.90
8988;DHT22;4529;51.360;12.474;2023-04-01T13:40:03;12.70;99.90
8988;DHT22;4529;51.360;12.474;2023-04-01T14:07:17;12.70;99.90
8988;DHT22;4529;51.360;12.474;2023-04-01T14:40:28;12.50;99.90
8988;DHT22;4529;51.360;12.474;2023-04-01T14:46:23;12.50;99.90
8988;DHT22;4529;51.360;12.474;2023-04-01T14:51:32;12.50;99.90
8988;DHT22;4529;51.360;12.474;2023-04-01T14:56:44;12.40;99.90
8988;DHT22;4529;51.360;12.474;2023-04-01T15:02:27;12.40;99.90
8988;DHT22;4529;51.360;12.474;2023-04-01T15:07:42;12.30;99.90
8988;DHT22;4529;51.360;12.474;2023-04-01T15:12:54;12.30;99.90
8988;DHT22;4529;51.360;12.474;2023-04-01T15:18:09;12.20;99.90
8988;DHT22;4529;51.360;12.474;2023-04-01T15:39:58;12.10;99.90
8988;DHT22;4529;51.360;12.474;2023-04-01T16:01:04;12.10;99.90
8988;DHT22;4529;51.360;12.474;2023-04-01T16:06:23;12.00;99.90
8988;DHT22;4529;51.360;12.474;2023-04-01T16:22:29;11.90;99.90
8988;DHT22;4529;51.360;12.474;2023-04-01T16:33:13;11.90;99.90
8988;DHT22;4529;51.360;12.474;2023-04-01T16:38:36;11.90;99.90
8988;DHT22;4529;51.360;12.474;2023-04-01T16:43:41;11.90;99.90
8988;DHT22;4529;51.360;12.474;2023-04-01T16:49:24;11.80;99.90
8988;DHT22;4529;51.360;12.474;2023-04-01T16:54:50;11.80;99.90
8988;DHT22;4529;51.360;12.474;2023-04-01T17:00:15;11.80;99.90
8988;DHT22;4529;51.360;12.474;2023-04-01T17:05:19;11.60;99.90
8988;DHT22;4529;51.360;12.474;2023-04-01T17:10:43;11.60;99.90
8988;DHT22;4529;51.360;12.474;2023-04-01T17:16:20;11.60;99.90
8988;DHT22;4529;51.360;12.474;2023-04-01T17:27:12;11.50;99.90
8988;DHT22;4529;51.360;12.474;2023-04-01T17:32:27;11.50;99.90
8988;DHT22;4529;51.360;12.474;2023-04-01T17:37:45;11.50;99.90
8988;DHT22;4529;51.360;12.474;2023-04-01T17:43:07;11.40;99.90
8988;DHT22;4529;51.360;12.474;2023-04-01T17:59:02;11.40;99.90
8988;DHT22;4529;51.360;12.474;2023-04-01T18:04:07;11.30;99.90
8988;DHT22;4529;51.360;12.474;2023-04-01T18:15:05;11.30;99.90
8988;DHT22;4529;51.360;12.474;2023-04-01T18:20:25;11.10;99.90
8988;DHT22;4529;51.360;12.474;2023-04-01T18:25:34;11.10;99.90
8988;DHT22;4529;51.360;12.474;2023-04-01T18:30:36;11.10;99.90
8988;DHT22;4529;51.360;12.474;2023-04-01T18:36:02;11.10;99.90
8988;DHT22;4529;51.360;12.474;2023-04-01T18:41:16;11.10;99.90
8988;DHT22;4529;51.360;12.474;2023-04-01T18:46:40;11.10;99.90
8988;DHT22;4529;51.360;12.474;2023-04-01T18:51:51;11.00;99.90
8988;DHT22;4529;51.360;12.474;2023-04-01T18:56:52;11.00;99.90
8988;DHT22;4529;51.360;12.474;2023-04-01T19:02:43;11.00;99.90
8988;DHT22;4529;51.360;12.474;2023-04-01T19:07:47;11.00;99.90
8988;DHT22;4529;51.360;12.474;2023-04-01T19:13:23;10.90;99.90
8988;DHT22;4529;51.360;12.474;2023-04-01T19:18:38;10.90;99.90
8988;DHT22;4529;51.360;12.474;2023-04-01T19:24:06;10.90;99.90
8988;DHT22;4529;51.360;12.474;2023-04-01T19:34:58;10.70;99.90
8988;DHT22;4529;51.360;12.474;2023-04-01T19:40:30;10.70;99.90
8988;DHT22;4529;51.360;12.474;2023-04-01T19:45:43;10.70;99.90
8988;DHT22;4529;51.360;12.474;2023-04-01T19:51:06;10.60;99.90
8988;DHT22;4529;51.360;12.474;2023-04-01T20:01:33;10.50;99.90
8988;DHT22;4529;51.360;12.474;2023-04-01T20:07:00;10.50;99.90
8988;DHT22;4529;51.360;12.474;2023-04-01T20:17:42;10.30;99.90
8988;DHT22;4529;51.360;12.474;2023-04-01T20:33:34;9.90;99.90
8988;DHT22;4529;51.360;12.474;2023-04-01T20:44:37;9.90;99.90
8988;DHT22;4529;51.360;12.474;2023-04-01T20:49:42;9.80;99.90
8988;DHT22;4529;51.360;12.474;2023-04-01T20:55:04;9.70;99.90
8988;DHT22;4529;51.360;12.474;2023-04-01T21:00:26;9.70;99.90
8988;DHT22;4529;51.360;12.474;2023-04-01T21:16:27;9.50;99.90
8988;DHT22;4529;51.360;12.474;2023-04-01T21:21:46;9.20;99.90
8988;DHT22;4529;51.360;12.474;2023-04-01T21:27:13;9.30;99.90
8988;DHT22;4529;51.360;12.474;2023-04-01T21:32:24;9.10;99.90
8988;DHT22;4529;51.360;12.474;2023-04-01T21:37:27;9.00;99.90
8988;DHT22;4529;51.360;12.474;2023-04-01T21:42:47;9.00;99.90
8988;DHT22;4529;51.360;12.474;2023-04-01T21:54:08;9.00;99.90
8988;DHT22;4529;51.360;12.474;2023-04-01T21:59:41;8.80;99.90
8988;DHT22;4529;51.360;12.474;2023-04-01T22:05:40;8.70;99.90
8988;DHT22;4529;51.360;12.474;2023-04-01T22:21:24;8.50;99.90
8988;DHT22;4529;51.360;12.474;2023-04-01T22:26:35;8.30;99.90
8988;DHT22;4529;51.360;12.474;2023-04-01T22:32:03;8.20;99.90
8988;DHT22;4529;51.360;12.474;2023-04-01T22:42:46;7.90;99.90
8988;DHT22;4529;51.360;12.474;2023-04-01T22:48:06;7.90;99.90
8988;DHT22;4529;51.360;12.474;2023-04-01T22:53:44;7.90;99.90
8988;DHT22;4529;51.360;12.474;2023-04-01T22:58:54;7.90;99.90
8988;DHT22;4529;51.360;12.474;2023-04-01T23:03:53;7.90;99.90
8988;DHT22;4529;51.360;12.474;2023-04-01T23:09:18;7.90;99.90
8988;DHT22;4529;51.360;12.474;2023-04-01T23:14:37;7.80;99.90
8988;DHT22;4529;51.360;12.474;2023-04-01T23:36:02;7.60;99.90
8988;DHT22;4529;51.360;12.474;2023-04-01T23:41:04;7.50;99.90
8988;DHT22;4529;51.360;12.474;2023-04-01T23:46:07;7.40;99.90
8988;DHT22;4529;51.360;12.474;2023-04-01T23:51:29;7.40;99.90
8988;DHT22;4529;51.360;12.474;2023-04-01T23:56:17;7.40;99.90
